Time;durP1;ratioP1;P1;durP2;ratioP2;P2;SDS_P1;SDS_P2;PMS_P1;PMS_P2;Temp;Humidity;BMP_temperature;BMP_pressure;BME280_temperature;BME280_humidity;BME280_pressure;Samples;Min_cycle;Max_cycle;Signal;HPM_P1;HPM_P2
2022/02/20 00:02:17;;;;;;;1.10;0.45;;;18.60;61.50;;;;;;10419099;28;20026;-56
2022/02/20 00:07:18;;;;;;;2.50;0.68;;;18.60;61.50;;;;;;10419217;28;20051;-57
2022/02/20 00:12:18;;;;;;;0.80;0.43;;;18.60;61.40;;;;;;10417533;28;20037;-57
2022/02/20 00:17:19;;;;;;;1.58;0.35;;;18.60;61.40;;;;;;10418821;28;20109;-57
2022/02/20 00:22:20;;;;;;;2.60;0.88;;;18.50;61.70;;;;;;10418477;28;20390;-57
2022/02/20 00:27:20;;;;;;;1.13;0.50;;;18.50;61.60;;;;;;10420317;28;20371;-57
2022/02/20 00:32:21;;;;;;;1.60;0.52;;;18.50;61.70;;;;;;10419805;28;20081;-57
2022/02/20 00:37:22;;;;;;;1.13;0.47;;;18.50;61.60;;;;;;10420950;28;20033;-57
2022/02/20 00:42:22;;;;;;;3.10;0.43;;;18.60;61.50;;;;;;10416334;28;20037;-57
2022/02/20 00:47:23;;;;;;;1.52;0.35;;;18.70;61.20;;;;;;10433154;28;20458;-57
2022/02/20 00:52:24;;;;;;;0.80;0.40;;;18.70;61.00;;;;;;10416024;28;20033;-57
2022/02/20 00:57:24;;;;;;;1.33;0.28;;;18.70;61.20;;;;;;10415413;28;20122;-57
2022/02/20 01:02:25;;;;;;;0.50;0.30;;;18.70;61.30;;;;;;10416926;28;20513;-57
2022/02/20 01:07:26;;;;;;;1.88;0.30;;;18.60;61.20;;;;;;10424208;28;20026;-57
2022/02/20 01:12:27;;;;;;;1.00;0.40;;;18.60;61.30;;;;;;10415357;28;20128;-57
2022/02/20 01:17:27;;;;;;;0.77;0.30;;;18.60;61.30;;;;;;10416561;28;20029;-57
2022/02/20 01:22:28;;;;;;;1.38;0.50;;;18.60;61.30;;;;;;10413040;28;20409;-57
2022/02/20 01:27:29;;;;;;;0.75;0.40;;;18.60;61.30;;;;;;10416135;28;20108;-57
2022/02/20 01:32:30;;;;;;;0.73;0.40;;;18.60;61.40;;;;;;10417640;28;20040;-57
2022/02/20 01:37:30;;;;;;;0.52;0.40;;;18.60;61.30;;;;;;10415522;28;20111;-57
2022/02/20 01:42:33;;;;;;;0.85;0.40;;;18.60;61.20;;;;;;10397525;28;20112;-56
2022/02/20 01:47:33;;;;;;;0.77;0.32;;;18.60;61.20;;;;;;10413926;28;20033;-56
2022/02/20 01:52:34;;;;;;;1.65;0.55;;;18.60;61.20;;;;;;10415022;28;20131;-56
2022/02/20 01:57:38;;;;;;;0.60;0.35;;;18.60;61.10;;;;;;10415018;28;20428;-57
2022/02/20 02:02:39;;;;;;;1.02;0.30;;;18.60;61.20;;;;;;10414411;28;20140;-57
2022/02/20 02:07:40;;;;;;;1.13;0.40;;;18.60;61.10;;;;;;10430037;28;20022;-57
2022/02/20 02:12:41;;;;;;;0.73;0.38;;;18.60;61.10;;;;;;10395335;28;20036;-57
2022/02/20 02:17:42;;;;;;;1.10;0.40;;;18.60;61.10;;;;;;10429311;28;20029;-56
2022/02/20 02:22:43;;;;;;;1.55;0.35;;;18.60;61.10;;;;;;10429226;28;20080;-57
2022/02/20 02:27:43;;;;;;;0.47;0.30;;;18.60;61.00;;;;;;10412698;28;20025;-57
2022/02/20 02:32:44;;;;;;;1.02;0.30;;;18.60;60.90;;;;;;10432085;28;20055;-57
2022/02/20 02:37:45;;;;;;;0.85;0.28;;;18.60;60.90;;;;;;10415941;28;20108;-57
2022/02/20 02:42:45;;;;;;;1.20;0.30;;;18.60;61.50;;;;;;10413264;28;20037;-55
2022/02/20 02:47:47;;;;;;;0.88;0.30;;;18.60;60.80;;;;;;10412185;28;20026;-57
2022/02/20 02:52:47;;;;;;;1.35;0.60;;;18.60;61.00;;;;;;10411889;28;20053;-57
2022/02/20 02:57:48;;;;;;;1.52;0.77;;;18.60;60.80;;;;;;10411823;28;20043;-56
2022/02/20 03:02:49;;;;;;;0.65;0.30;;;18.60;60.90;;;;;;10408261;28;20486;-57
2022/02/20 03:07:49;;;;;;;0.60;0.40;;;18.60;60.70;;;;;;10413098;28;20026;-57
2022/02/20 03:12:51;;;;;;;0.95;0.30;;;18.60;60.80;;;;;;10394796;28;20132;-57
2022/02/20 03:17:51;;;;;;;1.05;0.22;;;18.60;60.80;;;;;;10412813;28;20047;-57
2022/02/20 03:22:52;;;;;;;0.47;0.30;;;18.60;60.80;;;;;;10433039;28;20525;-57
2022/02/20 03:27:53;;;;;;;0.73;0.17;;;18.60;60.80;;;;;;10419638;28;20493;-57
2022/02/20 03:32:53;;;;;;;0.73;0.25;;;18.60;60.80;;;;;;10414318;28;20120;-56
2022/02/20 03:37:54;;;;;;;0.50;0.30;;;18.60;60.70;;;;;;10435631;28;20034;-57
2022/02/20 03:42:55;;;;;;;0.80;0.20;;;18.60;60.70;;;;;;10418510;28;20029;-57
2022/02/20 03:47:57;;;;;;;0.73;0.20;;;18.60;60.60;;;;;;10435543;28;20363;-57
2022/02/20 03:52:58;;;;;;;0.80;0.25;;;18.60;60.60;;;;;;10418153;28;20389;-57
2022/02/20 03:57:59;;;;;;;0.40;0.20;;;18.60;60.60;;;;;;10418451;28;20053;-56
2022/02/20 04:02:59;;;;;;;1.15;0.20;;;18.60;60.60;;;;;;10418029;28;20104;-57
2022/02/20 04:08:00;;;;;;;0.63;0.30;;;18.60;60.50;;;;;;10419337;28;20128;-57
2022/02/20 04:13:01;;;;;;;0.98;0.30;;;18.60;60.50;;;;;;10418815;28;20040;-57
2022/02/20 04:18:02;;;;;;;1.02;0.20;;;18.60;60.50;;;;;;10417446;28;20041;-57
2022/02/20 04:23:02;;;;;;;0.45;0.20;;;18.60;60.50;;;;;;10433729;28;20108;-57
2022/02/20 04:28:03;;;;;;;0.60;0.20;;;18.60;60.30;;;;;;10417311;28;20375;-56
2022/02/20 04:33:04;;;;;;;0.25;0.10;;;18.60;60.40;;;;;;10403034;28;20414;-57
2022/02/20 04:38:05;;;;;;;1.17;0.43;;;18.60;60.20;;;;;;10418091;28;20034;-57
2022/02/20 04:43:07;;;;;;;0.82;0.30;;;18.60;60.30;;;;;;10416686;28;20049;-57
2022/02/20 04:48:08;;;;;;;1.23;0.43;;;18.60;60.20;;;;;;10417426;28;20021;-57
2022/02/20 04:53:08;;;;;;;0.50;0.20;;;18.60;60.30;;;;;;10416117;28;20083;-57
2022/02/20 04:58:09;;;;;;;0.90;0.38;;;18.60;60.20;;;;;;10399526;28;20025;-57
2022/02/20 05:03:10;;;;;;;0.20;0.10;;;18.60;60.20;;;;;;10416504;28;20033;-57
2022/02/20 05:08:10;;;;;;;0.10;0.10;;;18.60;60.10;;;;;;10415600;28;20017;-57
2022/02/20 05:13:11;;;;;;;1.08;0.40;;;18.60;60.10;;;;;;10412311;28;20113;-56
2022/02/20 05:18:12;;;;;;;0.32;0.17;;;18.60;60.10;;;;;;10415226;28;20097;-57
2022/02/20 05:23:13;;;;;;;0.73;0.20;;;18.60;60.00;;;;;;10414728;28;20128;-57
2022/02/20 05:28:14;;;;;;;0.47;0.20;;;18.60;60.00;;;;;;10431502;28;20025;-57
2022/02/20 05:33:14;;;;;;;0.35;0.20;;;18.60;60.00;;;;;;10435388;28;20045;-57
2022/02/20 05:38:16;;;;;;;1.25;0.30;;;18.60;59.90;;;;;;10415785;28;20041;-56
2022/02/20 05:43:17;;;;;;;0.60;0.20;;;18.60;59.90;;;;;;10420201;28;20076;-57
2022/02/20 05:48:18;;;;;;;0.32;0.20;;;18.60;59.80;;;;;;10414034;28;20071;-57
2022/02/20 05:53:19;;;;;;;0.55;0.30;;;18.60;59.80;;;;;;10410560;28;20545;-57
2022/02/20 05:58:20;;;;;;;0.63;0.30;;;18.60;59.80;;;;;;10424976;28;20038;-57
2022/02/20 06:03:20;;;;;;;0.57;0.30;;;18.60;59.70;;;;;;10407511;28;20132;-57
2022/02/20 06:08:21;;;;;;;1.15;0.30;;;18.60;59.60;;;;;;10397869;28;20461;-57
2022/02/20 06:13:22;;;;;;;0.52;0.20;;;18.60;59.70;;;;;;10411603;28;20461;-57
2022/02/20 06:18:22;;;;;;;0.85;0.20;;;18.60;59.60;;;;;;10421861;28;20406;-57
2022/02/20 06:23:23;;;;;;;0.40;0.20;;;18.60;59.60;;;;;;10382237;28;20029;-57
2022/02/20 06:28:24;;;;;;;1.58;0.22;;;18.50;59.50;;;;;;10380409;28;20104;-56
2022/02/20 06:33:25;;;;;;;1.95;0.30;;;18.60;59.60;;;;;;10431865;28;20391;-58
2022/02/20 06:38:26;;;;;;;3.03;0.47;;;18.80;59.40;;;;;;10410472;28;20038;-57
2022/02/20 06:43:26;;;;;;;3.38;0.40;;;18.60;60.40;;;;;;10411249;28;20036;-56
2022/02/20 06:48:27;;;;;;;2.90;0.60;;;18.80;60.60;;;;;;10405167;28;20112;-57
2022/02/20 06:53:28;;;;;;;3.42;0.50;;;18.70;61.30;;;;;;10412392;28;20045;-56
2022/02/20 06:58:28;;;;;;;2.58;0.50;;;18.70;61.80;;;;;;10418514;28;20029;-57
2022/02/20 07:03:29;;;;;;;8.23;0.70;;;18.80;61.60;;;;;;10403239;28;20441;-58
2022/02/20 07:08:31;;;;;;;3.70;0.82;;;18.60;62.30;;;;;;10400548;28;20117;-58
2022/02/20 07:13:32;;;;;;;7.18;0.85;;;18.60;62.00;;;;;;10411980;28;20075;-57
2022/02/20 07:18:32;;;;;;;5.32;0.85;;;18.70;62.10;;;;;;10425901;28;20037;-55
2022/02/20 07:23:33;;;;;;;3.85;0.50;;;18.80;61.80;;;;;;10408028;28;20026;-55
2022/02/20 07:28:34;;;;;;;8.80;0.85;;;18.70;61.90;;;;;;10409941;28;20100;-55
2022/02/20 07:33:34;;;;;;;7.63;0.68;;;18.70;62.10;;;;;;10398325;28;20140;-55
2022/02/20 07:38:35;;;;;;;7.60;1.05;;;18.70;61.80;;;;;;10410714;28;20104;-57
2022/02/20 07:43:36;;;;;;;4.70;0.60;;;18.60;62.10;;;;;;10412311;28;20575;-56
2022/02/20 07:48:39;;;;;;;4.15;0.70;;;18.60;62.40;;;;;;10411275;28;20549;-56
2022/02/20 07:53:41;;;;;;;6.07;0.95;;;18.60;62.30;;;;;;10411385;28;20022;-56
2022/02/20 07:58:43;;;;;;;4.60;1.02;;;18.60;62.20;;;;;;10405743;28;20026;-56
2022/02/20 08:03:44;;;;;;;5.97;1.15;;;18.60;62.10;;;;;;10410677;28;20176;-56
2022/02/20 08:08:45;;;;;;;6.28;0.90;;;18.70;62.10;;;;;;10407355;28;20034;-57
2022/02/20 08:13:45;;;;;;;8.35;1.20;;;18.60;62.40;;;;;;10401518;28;20130;-55
2022/02/20 08:18:46;;;;;;;5.55;1.48;;;18.60;62.60;;;;;;10415748;28;20176;-56
2022/02/20 08:23:48;;;;;;;6.38;0.88;;;18.50;62.90;;;;;;10416091;28;20060;-56
2022/02/20 08:28:49;;;;;;;11.05;1.08;;;18.40;63.30;;;;;;10414043;28;20082;-56
2022/02/20 08:33:51;;;;;;;10.63;1.13;;;18.40;63.40;;;;;;10423028;28;20041;-56
2022/02/20 08:38:52;;;;;;;20.20;2.50;;;18.40;63.30;;;;;;10411988;28;20519;-53
2022/02/20 08:43:53;;;;;;;16.10;1.30;;;18.40;63.50;;;;;;10407453;28;20030;-55
2022/02/20 08:48:54;;;;;;;11.65;1.80;;;18.50;63.10;;;;;;10415816;28;20351;-51
2022/02/20 08:53:54;;;;;;;9.38;1.13;;;18.50;63.70;;;;;;10415710;28;20087;-54
2022/02/20 08:58:56;;;;;;;15.23;1.52;;;18.40;63.60;;;;;;10415280;28;20029;-52
2022/02/20 09:04:02;;;;;;;7.88;1.60;;;18.40;63.50;;;;;;10414554;28;20063;-53
2022/02/20 09:09:03;;;;;;;14.30;2.05;;;18.40;63.40;;;;;;10401603;28;20046;-55
2022/02/20 09:14:04;;;;;;;9.00;1.30;;;18.30;63.70;;;;;;10414662;28;20025;-53
2022/02/20 09:19:06;;;;;;;13.88;1.98;;;18.20;64.00;;;;;;10413623;28;20021;-51
2022/02/20 09:24:07;;;;;;;11.02;1.25;;;18.40;64.50;;;;;;10416146;28;20167;-52
2022/02/20 09:29:08;;;;;;;8.73;1.23;;;18.40;64.80;;;;;;10431264;28;20034;-57
2022/02/20 09:34:08;;;;;;;15.52;1.85;;;18.40;64.30;;;;;;10418288;28;20045;-56
2022/02/20 09:39:09;;;;;;;12.60;1.67;;;18.40;64.20;;;;;;10413713;28;20032;-57
2022/02/20 09:44:10;;;;;;;8.55;1.55;;;18.30;64.90;;;;;;10419249;28;20109;-57
2022/02/20 09:49:12;;;;;;;5.63;1.05;;;18.20;65.40;;;;;;10395757;28;20039;-55
2022/02/20 09:54:13;;;;;;;9.10;1.60;;;18.30;65.20;;;;;;10413918;28;20343;-56
2022/02/20 09:59:14;;;;;;;8.30;1.10;;;18.20;65.40;;;;;;10412267;28;20030;-56
2022/02/20 10:04:14;;;;;;;7.53;1.15;;;18.20;65.30;;;;;;10409810;28;20045;-56
2022/02/20 10:09:20;;;;;;;9.32;1.88;;;18.30;65.40;;;;;;10410500;28;20137;-55
2022/02/20 10:14:21;;;;;;;5.30;1.10;;;18.30;65.70;;;;;;10429385;28;20040;-54
2022/02/20 10:19:25;;;;;;;12.48;1.80;;;18.30;66.40;;;;;;10413116;28;20026;-56
2022/02/20 10:24:26;;;;;;;14.00;1.75;;;18.30;65.70;;;;;;10410561;28;20120;-55
2022/02/20 10:29:27;;;;;;;12.55;1.70;;;18.20;65.70;;;;;;10411210;28;20030;-57
2022/02/20 10:34:30;;;;;;;16.25;2.50;;;18.10;65.30;;;;;;10410230;28;20056;-57
2022/02/20 10:39:35;;;;;;;18.50;2.47;;;18.10;65.60;;;;;;10416794;28;20030;-57
2022/02/20 10:44:55;;;;;;;17.85;2.50;;;18.10;65.90;;;;;;10420421;28;20029;-56
2022/02/20 10:50:15;;;;;;;21.58;3.22;;;18.10;66.00;;;;;;10422062;28;20113;-57
2022/02/20 10:55:16;;;;;;;13.23;2.53;;;18.10;66.00;;;;;;10425176;28;20041;-57
2022/02/20 11:00:21;;;;;;;17.13;3.35;;;18.10;66.20;;;;;;10411605;28;20040;-57
2022/02/20 11:05:22;;;;;;;22.00;3.47;;;18.10;65.70;;;;;;10411065;28;20032;-56
2022/02/20 11:10:22;;;;;;;23.35;4.55;;;18.30;65.50;;;;;;10425698;28;20033;-55
2022/02/20 11:15:26;;;;;;;17.55;3.72;;;18.30;65.30;;;;;;10409802;28;20044;-57
2022/02/20 11:20:31;;;;;;;13.18;2.83;;;18.30;68.30;;;;;;10397419;28;20112;-56
2022/02/20 11:25:35;;;;;;;22.88;4.05;;;18.20;67.20;;;;;;10407177;28;20031;-57
2022/02/20 11:30:36;;;;;;;19.65;3.35;;;18.30;67.20;;;;;;10410895;28;20038;-56
2022/02/20 11:35:44;;;;;;;19.45;4.10;;;18.30;67.10;;;;;;10414550;28;20049;-55
2022/02/20 11:41:11;;;;;;;25.42;3.92;;;18.20;68.00;;;;;;10409642;28;20037;-54
2022/02/20 11:46:22;;;;;;;27.20;3.63;;;18.20;67.00;;;;;;10416762;28;20029;-52
2022/02/20 11:51:25;;;;;;;14.68;3.03;;;18.10;66.50;;;;;;10428092;28;20548;-54
2022/02/20 11:56:25;;;;;;;16.83;3.35;;;18.10;66.60;;;;;;10417734;28;20030;-52
2022/02/20 12:01:26;;;;;;;16.15;2.95;;;18.00;66.70;;;;;;10414512;28;20044;-52
2022/02/20 12:06:28;;;;;;;19.08;3.30;;;17.90;66.70;;;;;;10417114;28;20148;-54
2022/02/20 12:11:44;;;;;;;11.43;2.65;;;17.90;66.70;;;;;;10416904;28;20037;-54
2022/02/20 12:16:52;;;;;;;20.90;3.75;;;17.90;66.50;;;;;;10401450;28;20036;-52
2022/02/20 12:22:02;;;;;;;11.98;2.65;;;18.00;66.20;;;;;;10417315;28;20037;-53
2022/02/20 12:27:05;;;;;;;10.43;2.25;;;18.10;65.90;;;;;;10408847;28;20026;-54
2022/02/20 12:32:17;;;;;;;7.72;2.28;;;18.10;65.60;;;;;;10413496;28;20095;-53
2022/02/20 12:37:30;;;;;;;8.55;2.00;;;18.20;65.50;;;;;;10415974;28;20072;-53
2022/02/20 12:42:37;;;;;;;11.82;2.83;;;18.20;65.20;;;;;;10399535;28;20497;-53
2022/02/20 12:47:40;;;;;;;8.55;2.30;;;18.20;65.20;;;;;;10417546;28;20359;-53
2022/02/20 12:52:42;;;;;;;7.75;2.40;;;18.20;65.00;;;;;;10417114;28;20424;-54
2022/02/20 12:57:45;;;;;;;8.73;2.45;;;18.30;64.70;;;;;;10413107;28;20037;-54
2022/02/20 13:02:52;;;;;;;13.48;2.67;;;18.30;64.60;;;;;;10432416;28;20048;-54
2022/02/20 13:08:11;;;;;;;8.32;1.52;;;18.40;64.50;;;;;;10418804;28;20030;-53
2022/02/20 13:13:22;;;;;;;8.35;1.63;;;18.30;64.50;;;;;;10431230;28;20474;-54
2022/02/20 13:18:34;;;;;;;4.07;1.75;;;18.40;64.40;;;;;;10415313;28;20493;-52
2022/02/20 13:23:41;;;;;;;10.20;1.67;;;18.30;64.30;;;;;;10415153;28;20054;-53
2022/02/20 13:28:47;;;;;;;8.18;2.38;;;18.40;64.20;;;;;;10414692;28;20034;-53
2022/02/20 13:33:50;;;;;;;6.47;1.52;;;18.40;64.00;;;;;;10418122;28;20050;-53
2022/02/20 13:39:05;;;;;;;3.83;1.48;;;18.40;64.00;;;;;;10415525;28;20084;-54
2022/02/20 13:44:20;;;;;;;4.30;1.23;;;18.40;64.10;;;;;;10415340;28;20040;-54
2022/02/20 13:49:25;;;;;;;8.60;1.77;;;18.30;64.20;;;;;;10415299;28;20420;-54
2022/02/20 13:54:36;;;;;;;5.63;1.40;;;18.30;64.20;;;;;;10413983;28;20032;-55
2022/02/20 13:59:38;;;;;;;5.03;1.70;;;18.40;64.00;;;;;;10413993;28;20478;-54
2022/02/20 14:04:41;;;;;;;4.53;2.00;;;18.40;63.70;;;;;;10412313;28;20087;-52
2022/02/20 14:09:45;;;;;;;8.60;2.30;;;18.30;64.10;;;;;;10408075;28;20044;-53
2022/02/20 14:15:18;;;;;;;6.50;1.45;;;18.50;64.20;;;;;;10402395;28;20030;-51
2022/02/20 14:20:25;;;;;;;8.70;2.13;;;18.40;65.20;;;;;;10404527;28;20370;-56
2022/02/20 14:25:30;;;;;;;9.20;1.30;;;18.40;65.00;;;;;;10411853;28;20021;-57
2022/02/20 14:30:37;;;;;;;10.43;1.50;;;18.40;65.50;;;;;;10413067;28;20073;-55
2022/02/20 14:35:40;;;;;;;15.80;1.92;;;18.40;65.70;;;;;;10412080;28;20053;-55
2022/02/20 14:40:42;;;;;;;12.88;1.77;;;18.40;67.00;;;;;;10410094;28;20037;-61
2022/02/20 14:45:43;;;;;;;14.65;2.50;;;18.20;67.40;;;;;;10407350;28;20037;-54
2022/02/20 14:50:45;;;;;;;8.50;2.47;;;18.20;68.10;;;;;;10411655;28;20025;-55
2022/02/20 14:55:46;;;;;;;8.70;1.38;;;18.30;67.40;;;;;;10413154;28;20029;-54
2022/02/20 15:00:47;;;;;;;10.90;2.75;;;18.30;67.40;;;;;;10411448;28;20461;-54
2022/02/20 15:05:48;;;;;;;8.43;2.17;;;18.30;67.40;;;;;;10389885;28;20030;-55
2022/02/20 15:10:50;;;;;;;9.15;2.33;;;18.40;65.60;;;;;;10397759;28;20037;-52
2022/02/20 15:15:52;;;;;;;9.07;2.55;;;18.60;65.30;;;;;;10411400;28;20609;-55
2022/02/20 15:20:52;;;;;;;7.72;2.58;;;18.60;65.00;;;;;;10420464;28;20037;-51
2022/02/20 15:25:54;;;;;;;8.57;2.10;;;18.60;64.60;;;;;;10419513;28;20508;-52
2022/02/20 15:30:57;;;;;;;13.43;2.25;;;18.70;64.10;;;;;;10408273;28;20743;-53
2022/02/20 15:35:58;;;;;;;13.23;3.20;;;18.80;64.30;;;;;;10423811;28;20049;-50
2022/02/20 15:40:58;;;;;;;6.45;2.20;;;18.80;64.20;;;;;;10418586;28;20038;-50
2022/02/20 15:45:59;;;;;;;6.88;2.10;;;18.90;64.50;;;;;;10419953;28;20109;-53
2022/02/20 15:51:00;;;;;;;8.65;2.67;;;18.80;65.30;;;;;;10419823;28;20029;-54
2022/02/20 15:56:02;;;;;;;11.45;3.38;;;18.70;65.20;;;;;;10417115;28;20031;-51
2022/02/20 16:01:03;;;;;;;8.68;2.10;;;18.60;65.70;;;;;;10421556;28;20018;-53
2022/02/20 16:06:05;;;;;;;10.10;2.60;;;18.50;66.00;;;;;;10418186;28;20513;-55
2022/02/20 16:11:08;;;;;;;9.77;3.17;;;18.60;66.00;;;;;;10428110;28;20124;-50
2022/02/20 16:16:09;;;;;;;13.88;2.60;;;18.60;66.30;;;;;;10434186;28;20485;-52
2022/02/20 16:21:10;;;;;;;19.42;3.85;;;18.70;66.80;;;;;;10418171;28;20615;-57
2022/02/20 16:26:11;;;;;;;11.93;3.30;;;18.80;66.40;;;;;;10416022;28;20037;-58
2022/02/20 16:31:12;;;;;;;13.50;3.22;;;18.80;66.50;;;;;;10414364;28;20087;-57
2022/02/20 16:36:13;;;;;;;15.30;4.82;;;18.90;66.80;;;;;;10419289;28;20076;-57
2022/02/20 16:41:14;;;;;;;12.13;3.70;;;18.90;67.20;;;;;;10415065;28;20485;-57
2022/02/20 16:46:23;;;;;;;11.02;4.20;;;18.90;67.60;;;;;;10420023;28;20045;-57
2022/02/20 16:51:24;;;;;;;21.40;4.25;;;18.90;67.80;;;;;;10407832;28;20029;-59
2022/02/20 16:56:27;;;;;;;9.25;3.55;;;18.90;67.90;;;;;;10419518;28;20425;-60
2022/02/20 17:01:30;;;;;;;13.07;4.20;;;18.90;68.10;;;;;;10415937;28;20034;-60
2022/02/20 17:06:31;;;;;;;7.85;3.55;;;19.30;67.00;;;;;;10416066;28;20041;-57
2022/02/20 17:11:32;;;;;;;12.90;3.20;;;18.90;67.50;;;;;;10415396;28;20493;-58
2022/02/20 17:16:32;;;;;;;8.38;2.80;;;18.80;68.50;;;;;;10415452;28;20087;-58
2022/02/20 17:21:33;;;;;;;13.75;3.35;;;18.50;68.80;;;;;;10415846;28;20029;-58
2022/02/20 17:26:34;;;;;;;11.32;3.80;;;18.60;68.60;;;;;;10415112;28;20029;-59
2022/02/20 17:31:36;;;;;;;5.93;2.78;;;18.40;69.20;;;;;;10392220;28;20362;-57
2022/02/20 17:36:37;;;;;;;12.50;3.03;;;18.30;69.90;;;;;;10428471;28;20474;-60
2022/02/20 17:41:38;;;;;;;8.65;2.75;;;18.20;69.00;;;;;;10413521;28;20033;-60
2022/02/20 17:46:39;;;;;;;10.27;3.67;;;18.20;70.00;;;;;;10423924;28;20032;-60
2022/02/20 17:51:41;;;;;;;8.43;2.70;;;18.10;70.00;;;;;;10414925;28;20030;-60
2022/02/20 17:56:42;;;;;;;9.38;2.70;;;18.00;69.60;;;;;;10414935;28;20041;-59
2022/02/20 18:01:44;;;;;;;6.75;2.15;;;18.00;70.40;;;;;;10413538;28;20044;-57
2022/02/20 18:06:45;;;;;;;9.25;2.63;;;17.90;69.50;;;;;;10429444;28;20053;-59
2022/02/20 18:11:46;;;;;;;9.30;2.63;;;17.80;69.30;;;;;;10409969;28;20049;-59
2022/02/20 18:16:47;;;;;;;8.85;3.58;;;17.80;69.50;;;;;;10413068;28;20036;-60
2022/02/20 18:21:49;;;;;;;9.02;2.70;;;17.70;69.50;;;;;;10426540;28;20080;-60
2022/02/20 18:26:50;;;;;;;10.88;3.80;;;17.70;69.40;;;;;;10423252;28;20475;-59
2022/02/20 18:31:51;;;;;;;9.07;2.78;;;17.60;69.30;;;;;;10408261;28;20025;-59
2022/02/20 18:36:53;;;;;;;6.93;2.22;;;17.60;69.30;;;;;;10411640;28;20478;-60
2022/02/20 18:41:55;;;;;;;6.80;2.58;;;17.70;69.60;;;;;;10415864;28;20041;-59
2022/02/20 18:46:55;;;;;;;9.70;2.40;;;17.70;69.50;;;;;;10412255;28;20041;-60
2022/02/20 18:51:57;;;;;;;6.40;1.98;;;17.70;69.50;;;;;;10403823;28;20029;-60
2022/02/20 18:56:58;;;;;;;6.20;2.42;;;17.60;69.60;;;;;;10407947;28;20034;-59
2022/02/20 19:01:58;;;;;;;6.20;2.42;;;17.60;70.20;;;;;;10420419;28;20029;-59
2022/02/20 19:06:59;;;;;;;6.70;2.50;;;17.50;69.50;;;;;;10411514;28;20026;-59
2022/02/20 19:12:00;;;;;;;5.30;2.20;;;17.50;69.50;;;;;;10409749;28;20044;-59
2022/02/20 19:17:00;;;;;;;5.30;2.22;;;17.50;69.50;;;;;;10410324;28;20103;-58
2022/02/20 19:22:04;;;;;;;4.20;2.00;;;17.50;69.40;;;;;;10391538;28;20398;-59
2022/02/20 19:27:05;;;;;;;8.30;1.80;;;17.50;69.40;;;;;;10410463;28;20029;-58
2022/02/20 19:32:06;;;;;;;4.18;1.88;;;17.50;69.40;;;;;;10391543;28;20049;-59
2022/02/20 19:37:07;;;;;;;8.23;2.30;;;17.40;69.50;;;;;;10417004;28;20564;-59
2022/02/20 19:42:08;;;;;;;7.32;1.88;;;17.60;69.50;;;;;;10407247;28;20056;-59
2022/02/20 19:47:09;;;;;;;4.78;2.25;;;17.50;69.30;;;;;;10403839;28;20109;-59
2022/02/20 19:52:10;;;;;;;5.00;1.73;;;17.50;69.50;;;;;;10409798;28;20374;-58
2022/02/20 19:57:11;;;;;;;5.40;1.77;;;17.50;69.70;;;;;;10409439;28;20021;-58
2022/02/20 20:02:13;;;;;;;10.43;2.20;;;17.50;69.80;;;;;;10410429;28;20091;-58
2022/02/20 20:07:14;;;;;;;8.13;2.58;;;17.60;69.30;;;;;;10401520;28;20505;-60
2022/02/20 20:12:15;;;;;;;5.03;1.98;;;17.60;69.30;;;;;;10415605;28;20029;-59
2022/02/20 20:17:15;;;;;;;6.95;2.10;;;17.40;69.00;;;;;;10416966;28;20137;-58
2022/02/20 20:22:16;;;;;;;5.38;1.90;;;17.40;69.00;;;;;;10414780;28;20025;-59
2022/02/20 20:27:17;;;;;;;5.57;1.98;;;17.30;68.90;;;;;;10420258;28;20417;-58
2022/02/20 20:32:18;;;;;;;6.40;2.33;;;17.40;68.80;;;;;;10386410;28;20041;-58
2022/02/20 20:37:19;;;;;;;5.05;2.28;;;17.40;68.70;;;;;;10415907;28;20041;-59
2022/02/20 20:42:20;;;;;;;3.28;1.92;;;17.40;68.50;;;;;;10413980;28;20478;-59
2022/02/20 20:47:20;;;;;;;3.95;1.70;;;17.50;68.40;;;;;;10416269;28;20026;-59
2022/02/20 20:52:22;;;;;;;4.88;1.55;;;17.60;68.00;;;;;;10416321;28;20044;-58
2022/02/20 20:57:23;;;;;;;4.55;1.67;;;17.50;67.80;;;;;;10416496;28;20037;-58
2022/02/20 21:02:24;;;;;;;3.35;1.42;;;17.60;67.50;;;;;;10402629;28;20413;-59
2022/02/20 21:07:25;;;;;;;4.65;1.63;;;17.70;67.20;;;;;;10419365;28;20029;-58
2022/02/20 21:12:26;;;;;;;5.45;1.67;;;17.60;67.30;;;;;;10422120;28;20034;-59
2022/02/20 21:17:26;;;;;;;2.92;1.20;;;17.60;67.40;;;;;;10415104;28;20021;-59
2022/02/20 21:22:27;;;;;;;3.83;1.67;;;17.70;67.10;;;;;;10416204;28;20046;-58
2022/02/20 21:27:28;;;;;;;5.53;1.52;;;17.70;66.80;;;;;;10404017;28;20041;-60
2022/02/20 21:32:30;;;;;;;3.78;1.08;;;17.70;66.70;;;;;;10413214;28;20033;-59
2022/02/20 21:37:31;;;;;;;10.77;2.65;;;17.80;66.50;;;;;;10415819;28;20046;-59
2022/02/20 21:42:34;;;;;;;2.97;1.77;;;17.80;66.40;;;;;;10415683;28;20033;-58
2022/02/20 21:47:36;;;;;;;2.22;1.33;;;17.80;66.50;;;;;;10414685;28;20021;-58
2022/02/20 21:52:36;;;;;;;2.70;1.23;;;17.70;66.60;;;;;;10414091;28;20040;-59
2022/02/20 21:57:38;;;;;;;2.63;1.27;;;17.70;66.40;;;;;;10415084;28;20509;-58
2022/02/20 22:02:38;;;;;;;3.22;1.40;;;17.80;66.40;;;;;;10414253;28;20428;-58
2022/02/20 22:07:39;;;;;;;2.67;1.23;;;17.70;66.40;;;;;;10412616;28;20030;-58
2022/02/20 22:12:40;;;;;;;2.38;0.95;;;17.70;66.30;;;;;;10420606;28;20425;-59
2022/02/20 22:17:41;;;;;;;5.28;1.70;;;17.70;66.30;;;;;;10412659;28;20417;-58
2022/02/20 22:22:42;;;;;;;4.25;1.35;;;17.70;66.40;;;;;;10413270;28;20029;-58
2022/02/20 22:27:43;;;;;;;1.73;0.93;;;17.70;66.30;;;;;;10382267;28;20398;-58
2022/02/20 22:32:44;;;;;;;3.63;1.23;;;17.70;66.20;;;;;;10416929;28;20033;-59
2022/02/20 22:37:45;;;;;;;2.45;1.13;;;17.70;66.30;;;;;;10429289;28;20033;-59
2022/02/20 22:42:46;;;;;;;1.48;0.80;;;17.70;66.20;;;;;;10427027;28;20037;-59
2022/02/20 22:47:46;;;;;;;1.75;1.00;;;17.70;66.00;;;;;;10428882;28;20478;-58
2022/02/20 22:52:47;;;;;;;2.50;1.10;;;17.70;66.10;;;;;;10412121;28;20095;-59
2022/02/20 22:57:48;;;;;;;2.83;0.90;;;17.70;66.10;;;;;;10412364;28;20557;-59
2022/02/20 23:02:48;;;;;;;3.53;1.13;;;17.70;66.00;;;;;;10417541;28;20116;-59
2022/02/20 23:07:50;;;;;;;1.45;1.00;;;17.70;66.00;;;;;;10411907;28;20116;-59
2022/02/20 23:12:50;;;;;;;2.63;1.08;;;17.70;65.90;;;;;;10411739;28;20034;-58
2022/02/20 23:17:51;;;;;;;3.60;1.10;;;17.70;65.90;;;;;;10401818;28;20521;-58
2022/02/20 23:22:52;;;;;;;3.45;1.17;;;17.70;65.90;;;;;;10411615;28;20124;-59
2022/02/20 23:27:54;;;;;;;2.78;0.98;;;17.70;65.70;;;;;;10411364;28;20474;-58
2022/02/20 23:32:56;;;;;;;2.00;0.93;;;17.70;65.60;;;;;;10414329;28;20550;-59
2022/02/20 23:37:57;;;;;;;1.13;0.70;;;17.70;65.60;;;;;;10429843;28;20064;-58
2022/02/20 23:42:58;;;;;;;4.30;1.23;;;17.80;65.40;;;;;;10426441;28;20038;-58
2022/02/20 23:47:59;;;;;;;1.60;0.65;;;17.80;65.30;;;;;;10419224;28;20033;-58
2022/02/20 23:53:00;;;;;;;2.45;0.65;;;17.80;65.30;;;;;;10418704;28;20109;-58
2022/02/20 23:58:01;;;;;;;1.55;0.90;;;17.70;65.30;;;;;;10420008;28;20474;-58
